• Join FlightAware (Why Join?)
  • Login
  • US Flag 
07:59PM EST


 

Airport Tracker/Info


-or-


 

Live Flight TrackerFlight Track Log ✈ SKW6306 ✈ 24-Jun-2013 ✈ CYXE - KDEN

Flight Track Log - Related Links

Times and Time Zones

All times are in EDT time to prevent confusion due to time zone crossing. See the SKW6306 flight status page for this flight to view local times or setup timezone preferences in your user account.

Time Position Orientation Groundspeed Altitude Reporting Facility
EDT Latitude Longitude Course Direction KTS MPH feet Rate Location/Type
04:51PM 52.1833 -106.8333 288° West 200 230 4,600  Level Winnipeg Center
04:52PM 52.1833 -106.9500 270° West 250 288 6,800 2,580 Climbing Winnipeg Center
04:53PM 51.8400 -106.8783 199° South  Level FlightAware Approximate
04:53PM 52.1500 -107.0833 248° West 270 311 9,800  Level Winnipeg Center
04:54PM 51.7294 -106.9354 197° South  Level FlightAware Approximate
04:54PM 52.0833 -107.1167 197° South 310 357 11,100  Level Winnipeg Center
04:55PM 51.6177 -106.9833 180° South  Level FlightAware Approximate
04:55PM 52.0000 -107.1500 194° South 330 380 13,400  Level Winnipeg Center
04:56PM 51.9000 -107.1833 192° South 330 380 15,000 1,320 Climbing Winnipeg Center
04:57PM 51.8000 -107.2167 192° South 350 403 16,100 1,260 Climbing Winnipeg Center
04:58PM 51.7000 -107.2500 192° South 360 414 17,600 1,440 Climbing Winnipeg Center
04:59PM 51.6167 -107.2833 194° South 370 426 19,000 1,320 Climbing Winnipeg Center
05:00PM 51.5167 -107.3167 192° South 370 426 20,300 1,200 Climbing Winnipeg Center
05:01PM 51.4167 -107.3500 192° South 380 437 21,400 1,020 Climbing Winnipeg Center
05:02PM 51.2833 -107.4000 193° South 390 449 22,400 900 Climbing Winnipeg Center
05:03PM 51.2000 -107.4333 194° South 390 449 23,200 840 Climbing Winnipeg Center
05:04PM 51.1000 -107.4667 192° South 390 449 24,100 780 Climbing Winnipeg Center
05:05PM 50.9667 -107.4833 185° South 400 460 24,800 600 Climbing Winnipeg Center
05:06PM 50.8667 -107.5167 192° South 400 460 25,400 600 Climbing Winnipeg Center
05:07PM 50.7500 -107.5667 195° South 410 472 26,000 600 Climbing Winnipeg Center
05:08PM 50.6500 -107.6000 192° South 410 472 26,600 600 Climbing Winnipeg Center
05:09PM 50.5333 -107.6333 190° South 410 472 27,300 660 Climbing Winnipeg Center
05:10PM 50.4167 -107.6833 195° South 400 460 28,000 600 Climbing Winnipeg Center
05:11PM 50.3167 -107.7167 192° South 400 460 28,600 600 Climbing Winnipeg Center
05:12PM 50.2167 -107.7333 186° South 410 472 29,200 540 Climbing Winnipeg Center
05:13PM 50.0833 -107.7333 180° South 410 472 29,700 480 Climbing Winnipeg Center
05:14PM 49.9667 -107.7667 190° South 410 472 30,200 480 Climbing Winnipeg Center
05:15PM 49.8500 -107.7667 180° South 420 483 30,700 480 Climbing Winnipeg Center
05:16PM 49.7500 -107.7833 186° South 420 483 31,200 540 Climbing Winnipeg Center
05:17PM 49.6167 -107.7833 180° South 420 483 31,800 540 Climbing Winnipeg Center
05:18PM 49.5167 -107.8167 192° South 420 483 32,300 480 Climbing Winnipeg Center
05:19PM 49.4000 -107.8167 180° South 420 483 32,800 180 Climbing Winnipeg Center
05:21PM 49.1761 -107.8200 181° South 420 483 33,000 60 Climbing Salt Lake Center
05:22PM 49.0625 -107.8333 184° South 414 476 33,000  Level Salt Lake Center
05:23PM 48.9272 -107.8478 184° South 409 471 33,000  Level Salt Lake Center
05:24PM 48.8131 -107.8606 184° South 410 472 33,000  Level Salt Lake Center
05:26PM 48.6989 -107.8739 184° South 411 473 33,000  Level Salt Lake Center
05:27PM 48.5811 -107.8847 183° South 418 481 33,000  Level Salt Lake Center
05:28PM 48.4644 -107.8978 184° South 421 484 33,000  Level Salt Lake Center
05:29PM 48.3469 -107.9108 184° South 424 488 33,000  Level Salt Lake Center
05:31PM 48.0917 -107.9375 184° South 419 482 33,000  Level Salt Lake Center
05:32PM 47.9794 -107.9494 184° South 411 473 33,000  Level Salt Lake Center
05:33PM 47.8669 -107.9617 184° South 409 471 33,000  Level Salt Lake Center
05:34PM 47.7542 -107.9750 185° South 407 468 33,000  Level Salt Lake Center
05:35PM 47.6375 -107.9869 184° South 411 473 33,000  Level Salt Lake Center
05:36PM 47.5197 -107.9981 184° South 417 480 33,000  Level Salt Lake Center
05:37PM 47.3808 -107.9544 168° South 428 493 33,000  Level Salt Lake Center
05:38PM 47.2683 -107.9147 167° South 421 484 33,000  Level Salt Lake Center
05:39PM 47.1456 -107.8708 166° South 418 481 33,000  Level Salt Lake Center
05:40PM 47.0347 -107.8289 166° South 414 476 33,000  Level Salt Lake Center
05:41PM 46.9244 -107.7892 166° South 412 474 33,000  Level Salt Lake Center
05:42PM 46.8128 -107.7486 166° South 413 475 33,000  Level Salt Lake Center
05:43PM 46.7028 -107.7094 166° South 411 473 33,000  Level Salt Lake Center
05:44PM 46.5786 -107.6631 166° South 410 472 33,000  Level Salt Lake Center
05:45PM 46.4667 -107.6228 166° South 418 481 33,000  Level Salt Lake Center
05:46PM 46.3447 -107.5783 166° South 420 483 33,000  Level Salt Lake Center
05:47PM 46.2308 -107.5394 167° South 426 490 33,000  Level Salt Lake Center
05:48PM 46.1069 -107.4950 166° South 427 491 33,000  Level Salt Lake Center
05:49PM 45.9917 -107.4542 166° South 432 497 33,000  Level Salt Lake Center
05:50PM 45.8667 -107.4114 167° South 426 490 33,000  Level Salt Lake Center
05:51PM 45.7503 -107.3708 166° South 434 499 33,000  Level Salt Lake Center
05:52PM 45.6228 -107.3269 166° South 438 504 33,000  Level Salt Lake Center
05:53PM 45.5061 -107.2869 166° South 437 503 33,000  Level Salt Lake Center
05:54PM 45.3872 -107.2472 167° South 441 507 33,000  Level Salt Lake Center
05:55PM 45.2725 -107.2092 167° South 433 498 33,000  Level Salt Lake Center
05:56PM 45.1469 -107.1667 167° South 441 507 33,000  Level Salt Lake Center
05:57PM 45.0133 -107.1206 166° South 444 511 33,000  Level Salt Lake Center
05:59PM 44.8972 -107.0828 167° South 445 512 33,000  Level Salt Lake Center
06:00PM 44.7619 -107.0411 168° South 446 513 33,100 240 Climbing Salt Lake Center
06:01PM 44.6447 -107.0125 170° South 446 513 33,600 600 Climbing Salt Lake Center
06:02PM 44.5092 -106.9792 170° South 444 511 34,400 660 Climbing Salt Lake Center
06:03PM 44.3978 -106.9503 170° South 434 499 35,000 240 Climbing Salt Lake Center
06:04PM 44.2842 -106.9214 170° South 433 498 35,000  Level Salt Lake Center
06:05PM 44.1478 -106.8878 170° South 444 511 35,000  Level Salt Lake Center
06:06PM 44.0308 -106.8583 170° South 445 512 35,000  Level Salt Lake Center
06:07PM 43.8939 -106.8247 170° South 446 513 35,000  Level Salt Lake Center
06:08PM 43.7769 -106.7947 170° South 448 516 35,000  Level Salt Lake Center
06:09PM 43.6400 -106.7619 170° South 448 516 35,000  Level Salt Lake Center
06:10PM 43.5222 -106.7328 170° South 449 517 35,000  Level Salt Lake Center
06:10PM 43.4633 -106.7175 169° South 447 514 35,000  Level Denver Center
06:11PM 43.3244 -106.6844 170° South 452 520 35,000  Level Denver Center
06:12PM 43.2053 -106.6547 170° South 454 522 35,000  Level Denver Center
06:13PM 43.0667 -106.6231 171° South 454 522 35,000  Level Denver Center
06:14PM 42.9492 -106.5931 169° South 451 519 35,000  Level Denver Center
06:15PM 42.8303 -106.5656 170° South 452 520 35,000  Level Denver Center
06:17PM 42.6889 -106.5319 170° South 460 529 35,000  Level Denver Center
06:18PM 42.5683 -106.5042 170° South 461 531 35,000  Level Denver Center
06:19PM 42.4297 -106.4706 170° South 455 524 35,000  Level Denver Center
06:20PM 42.3100 -106.4264 165° South 465 535 35,000  Level Denver Center
06:21PM 42.1775 -106.3372 153° Southeast 477 549 35,000  Level Denver Center
06:22PM 42.0631 -106.2617 154° Southeast 479 551 35,000  Level Denver Center
06:23PM 41.9303 -106.1733 154° Southeast 478 550 35,000  Level Denver Center
06:24PM 41.8153 -106.0961 153° Southeast 483 556 35,000 -180 Level Denver Center
06:25PM 41.6844 -106.0106 154° Southeast 473 544 34,700 -1,200 Descending Denver Center
06:26PM 41.5717 -105.9364 154° Southeast 472 543 32,600 -1,860 Descending Denver Center
06:27PM 41.4594 -105.8639 154° Southeast 470 541 31,000 -780 Descending Denver Center
06:28PM 41.3311 -105.7797 154° Southeast 463 533 31,000  Level Denver Center
06:29PM 41.2242 -105.7097 154° Southeast 452 520 31,000  Level Denver Center
06:30PM 41.0969 -105.6267 154° Southeast 456 525 31,000 -720 Level Denver Center
06:31PM 40.9786 -105.5503 154° Southeast 465 535 29,600 -1,740 Descending Denver Center
06:32PM 40.8583 -105.4733 154° Southeast 478 550 27,500 -2,100 Descending Denver Center
06:33PM 40.7475 -105.4008 154° Southeast 451 519 25,300 -2,160 Descending Denver Center
06:34PM 40.6414 -105.3333 154° Southeast 428 493 23,100 -1,860 Descending Denver Center
06:35PM 40.5422 -105.2686 154° Southeast 403 464 21,600 -1,860 Descending Denver Center
06:36PM 40.4311 -105.1897 152° Southeast 409 471 19,300 -2,100 Descending Denver Center
06:37PM 40.3417 -105.1119 146° Southeast 390 449 17,300 -1,920 Descending Denver Center
06:38PM 40.2519 -105.0244 143° Southeast 374 430 15,400 -1,740 Descending Denver Center
06:39PM 40.1731 -104.9483 144° Southeast 355 409 13,800 -1,200 Descending Denver Center
06:40PM 40.0931 -104.8742 145° Southeast 354 407 13,000 -540 Descending Denver Center
06:41PM 40.0094 -104.7908 143° Southeast 349 402 12,700 -660 Descending Denver Center
06:42PM 39.9614 -104.6861 121° Southeast 350 403 11,700 -840 Descending Denver Center
06:43PM 39.9644 -104.5664 88° East 325 374 11,000 -780 Descending Denver Center
06:44PM 39.9661 -104.4694 89° East 244 281 10,200 -1,080 Descending Denver Center
06:45PM 39.9264 -104.4239 139° Southeast 223 257 8,900 -1,320 Descending Denver Center